Terminal Aerodrome Forecast
Issued by NWS

Home | Current Version | Previous Version | Text Only | Print | Product List | Glossary On
Versions: 1 2 3 4 5 6 7 8 9 10 11 12 13 14
000
FTUS45 KFGZ 061720
TAFPGA
TAF
KPGA 061720Z 0618/0718 18018G28KT P6SM SCT120
     FM062000 20015G25KT P6SM SCT120 BKN150
     FM070100 23011KT P6SM SCT100 BKN140=

USA.gov is the U.S. government's official web portal to all federal, state and local government web resources and services.